• Join FlightAware (Why Join?)
  • Login
  • US Flag 
02:08AM EDT


 

Airport Tracker/Info


-or-


 

Live Flight TrackerFlight Track Log ✈ N825ST ✈ 24-Jun-2013 ✈ KMEZ - KSTP

Flight Track Log - Related Links

Times and Time Zones

All times are in EDT time to prevent confusion due to time zone crossing. See the N825ST flight status page for this flight to view local times or setup timezone preferences in your user account.

Time Position Orientation Groundspeed Altitude Reporting Facility
EDT Latitude Longitude Course Direction KTS MPH feet Rate Location/Type
06:47PM 34.6819 -94.1731 North 281 323 8,000  Level Memphis Center
06:48PM 34.7489 -94.1736 360° North 263 303 9,700 1,680 Climbing Memphis Center
06:49PM 34.8000 -94.2011 336° Northwest 228 262 11,400 1,620 Climbing Memphis Center
06:50PM 34.8575 -94.2367 333° Northwest 222 255 13,000 1,440 Climbing Memphis Center
06:51PM 34.9084 -94.1510 North  Level FlightAware Approximate
06:51PM 34.9025 -94.2617 336° Northwest 222 255 14,300  Level Memphis Center
06:52PM 34.9840 -94.1500 North  Level FlightAware Approximate
06:52PM 34.9711 -94.2672 356° North 204 235 16,400  Level Memphis Center
06:53PM 35.0317 -94.2675 360° North 204 235 17,800 1,500 Climbing Memphis Center
06:54PM 35.0900 -94.2703 358° North 199 229 19,400 1,500 Climbing Memphis Center
06:55PM 35.1506 -94.2706 360° North 204 235 20,900 1,200 Climbing Memphis Center
06:56PM 35.2089 -94.2681 North 204 235 21,900 480 Climbing Memphis Center
06:57PM 35.2822 -94.2639 North 227 261 21,900  Level Memphis Center
06:58PM 35.3594 -94.2547 North 256 295 22,000  Climbing Memphis Center
06:59PM 35.4392 -94.2458 North 278 320 21,900 180 Descending Memphis Center
07:00PM 35.5144 -94.2392 North 285 328 22,400 480 Climbing Memphis Center
07:01PM 35.5856 -94.2297 North 268 308 22,900 240 Climbing Memphis Center
07:02PM 35.6544 -94.2253 North 263 303 22,900  Level Memphis Center
07:03PM 35.7300 -94.2158 North 269 310 22,900  Level Memphis Center
07:04PM 35.8094 -94.2069 North 275 316 22,900  Level Memphis Center
07:07PM 36.0050 -94.1850 North 279 321 22,900  Level Kansas City Center
07:08PM 36.0822 -94.1739 North 279 321 22,900  Level Kansas City Center
07:09PM 36.1581 -94.1672 North 276 318 22,900  Level Kansas City Center
07:10PM 36.2492 -94.1575 North 275 316 22,900  Level Kansas City Center
07:11PM 36.3247 -94.1492 North 274 315 22,900  Level Kansas City Center
07:12PM 36.4011 -94.1406 North 275 316 22,900  Level Kansas City Center
07:13PM 36.4761 -94.1328 North 272 313 22,900  Level Kansas City Center
07:14PM 36.5519 -94.1233 North 273 314 22,900  Level Kansas City Center
07:15PM 36.6281 -94.1161 North 273 314 22,900  Level Kansas City Center
07:16PM 36.7186 -94.1061 North 273 314 22,900  Level Kansas City Center
07:17PM 36.7939 -94.0983 North 272 313 22,900  Level Kansas City Center
07:18PM 36.8700 -94.0892 North 274 315 22,900  Level Kansas City Center
07:19PM 36.9453 -94.0808 North 272 313 22,900  Level Kansas City Center
07:20PM 37.0222 -94.0717 North 276 318 22,900  Level Kansas City Center
07:21PM 37.0978 -94.0628 North 275 316 22,900  Level Kansas City Center
07:22PM 37.1775 -94.0544 North 274 315 22,900  Level Kansas City Center
07:23PM 37.2556 -94.0442 North 278 320 22,900  Level Kansas City Center
07:24PM 37.3475 -94.0358 North 276 318 22,900  Level Kansas City Center
07:25PM 37.4239 -94.0258 North 275 316 23,000  Climbing Kansas City Center
07:26PM 37.5003 -94.0186 North 274 315 23,000  Level Kansas City Center
07:27PM 37.5767 -94.0086 North 275 316 23,000  Level Kansas City Center
07:28PM 37.6531 -93.9992 North 277 319 23,000  Level Kansas City Center
07:29PM 37.7297 -93.9897 North 276 318 23,000  Level Kansas City Center
07:31PM 37.8064 -93.9811 North 276 318 23,000  Level Kansas City Center
07:32PM 37.9003 -93.9692 North 279 321 23,000  Level Kansas City Center
07:33PM 37.9764 -93.9619 North 276 318 23,000  Level Kansas City Center
07:34PM 38.0531 -93.9531 North 276 318 23,000  Level Kansas City Center
07:35PM 38.1306 -93.9453 North 276 318 23,000  Level Kansas City Center
07:36PM 38.2083 -93.9331 North 279 321 23,000  Level Kansas City Center
07:37PM 38.2861 -93.9244 North 280 322 23,000  Level Kansas City Center
07:38PM 38.3636 -93.9158 North 279 321 23,000  Level Kansas City Center
07:39PM 38.4556 -93.9058 North 277 319 23,000  Level Kansas City Center
07:40PM 38.5225 -93.8953 North 276 318 23,000  Level Kansas City Center
07:41PM 38.6078 -93.8875 North 275 316 23,000  Level Kansas City Center
07:42PM 38.6822 -93.8789 North 279 321 23,000  Level Kansas City Center
07:43PM 38.7681 -93.8683 North 279 321 23,000  Level Kansas City Center
07:44PM 38.8425 -93.8578 North 280 322 23,000  Level Kansas City Center
07:45PM 38.9306 -93.8481 North 284 327 23,000  Level Kansas City Center
07:46PM 39.0058 -93.8394 North 284 327 23,000  Level Kansas City Center
07:47PM 39.0922 -93.8300 North 280 322 23,000  Level Kansas City Center
07:48PM 39.1656 -93.8208 North 278 320 23,000  Level Kansas City Center
07:49PM 39.2511 -93.8083 North 278 320 23,000  Level Kansas City Center
07:50PM 39.3208 -93.8011 North 267 307 23,000  Level Kansas City Center
07:51PM 39.3994 -93.7911 North 257 296 23,000  Level Kansas City Center
07:52PM 39.4681 -93.7844 North 257 296 23,000  Level Kansas City Center
07:53PM 39.5478 -93.7739 North 257 296 23,000  Level Kansas City Center
07:54PM 39.6158 -93.7639 North 257 296 23,000  Level Kansas City Center
07:55PM 39.6958 -93.7572 North 258 297 23,000  Level Kansas City Center
07:56PM 39.7636 -93.7472 North 256 295 23,000  Level Kansas City Center
07:57PM 39.8411 -93.7358 North 256 295 23,000  Level Kansas City Center
07:58PM 39.9119 -93.7286 North 257 296 23,000  Level Kansas City Center
07:59PM 39.9831 -93.7219 North 257 296 23,000  Level Kansas City Center
08:01PM 40.0547 -93.7097 North 260 299 23,000  Level Kansas City Center
08:02PM 40.1261 -93.7039 North 259 298 23,000  Level Kansas City Center
08:03PM 40.2100 -93.6911 North 257 296 23,000  Level Kansas City Center
08:04PM 40.2842 -93.6833 North 263 303 23,000  Level Kansas City Center
08:05PM 40.3567 -93.6758 North 264 304 23,000  Level Kansas City Center
08:05PM 40.4156 -93.6675 North 268 308 23,000  Level Minneapolis Center
08:06PM 40.4764 -93.6603 North 271 312 23,000  Level Minneapolis Center
08:07PM 40.5514 -93.6500 North 272 313 23,000  Level Minneapolis Center
08:08PM 40.6256 -93.6419 North 269 310 23,000  Level Minneapolis Center
08:09PM 40.7003 -93.6319 North 272 313 23,000  Level Minneapolis Center
08:10PM 40.7914 -93.6217 North 273 314 23,000  Level Minneapolis Center
08:11PM 40.8667 -93.6092 North 274 315 23,000  Level Minneapolis Center
08:12PM 40.9406 -93.5997 North 271 312 23,000  Level Minneapolis Center
08:13PM 41.0161 -93.5908 North 272 313 23,000  Level Minneapolis Center
08:14PM 41.0911 -93.5817 North 272 313 23,000  Level Minneapolis Center
08:16PM 41.1650 -93.5747 North 271 312 23,000  Level Minneapolis Center
08:17PM 41.2825 -93.5750 360° North 266 306 23,000  Level Minneapolis Center
08:18PM 41.3569 -93.5750 360° North 266 306 23,000  Level Minneapolis Center
08:19PM 41.4297 -93.5744 360° North 266 306 23,000  Level Minneapolis Center
08:20PM 41.5042 -93.5733 North 267 307 23,000  Level Minneapolis Center
08:21PM 41.5922 -93.5742 360° North 267 307 23,000  Level Minneapolis Center
08:22PM 41.6794 -93.5731 North 264 304 23,000  Level Minneapolis Center
08:23PM 41.7517 -93.5703 North 261 300 23,000  Level Minneapolis Center
08:24PM 41.8239 -93.5719 359° North 261 300 23,000  Level Minneapolis Center
08:25PM 41.8981 -93.5692 North 262 302 23,000  Level Minneapolis Center
08:26PM 41.9711 -93.5678 North 260 299 23,000  Level Minneapolis Center
08:27PM 42.0431 -93.5681 360° North 259 298 23,000  Level Minneapolis Center
08:28PM 42.1142 -93.5675 360° North 258 297 23,000  Level Minneapolis Center
08:30PM 42.2006 -93.5586 North 260 299 23,000  Level Minneapolis Center
08:31PM 42.2731 -93.5433 North 265 305 23,000  Level Minneapolis Center
08:32PM 42.3525 -93.5443 359° North  Level FlightAware Approximate
08:32PM 42.3308 -93.5342 359° North 264 304 23,000  Level Minneapolis Center
08:33PM 42.4186 -93.5219 North 265 305 23,000  Level Minneapolis Center
08:34PM 42.4911 -93.5125 North 265 305 23,000  Level Minneapolis Center
08:35PM 42.5633 -93.5072 North 263 303 23,000  Level Minneapolis Center
08:36PM 42.6361 -93.5008 North 263 303 23,000  Level Minneapolis Center
08:38PM 42.7819 -93.4906 North 266 306 23,000  Level Chicago Center
08:39PM 42.8569 -93.4903 360° North 269 310 23,000  Level Chicago Center
08:40PM 42.9294 -93.4944 358° North 266 306 23,000  Level Chicago Center
08:41PM 43.0200 -93.4956 359° North 270 311 23,000  Level Chicago Center
08:42PM 43.1075 -93.4983 359° North 265 305 23,000  Level Minneapolis Center
08:43PM 43.1822 -93.5003 359° North 268 308 23,000  Level Minneapolis Center
08:44PM 43.2558 -93.5003 360° North 267 307 23,000  Level Minneapolis Center
08:45PM 43.3294 -93.5019 359° North 267 307 23,000 -720 Level Minneapolis Center
08:46PM 43.4039 -93.5039 359° North 267 307 21,600 -1,560 Descending Minneapolis Center
08:48PM 43.5592 -93.4842 North 276 318 18,600 -1,200 Descending Chicago Center
08:49PM 43.6353 -93.4647 10° North 276 318 18,100 -1,680 Descending Chicago Center
08:50PM 43.7319 -93.4358 12° North 261 300 14,900 -1,920 Descending Minneapolis Center
08:51PM 43.7931 -93.4381 358° North 228 262 13,900 -1,080 Descending Minneapolis Center
08:52PM 43.8606 -93.4456 355° North 238 274 12,700 -1,200 Descending Minneapolis Center
08:53PM 43.9400 -93.4464 360° North 241 277 11,400 -1,200 Descending Minneapolis Center
08:54PM 43.9978 -93.4492 358° North 219 252 10,300 -1,140 Descending Minneapolis Center
08:55PM 44.0600 -93.4525 358° North 210 242 9,100 -1,020 Descending Minneapolis Center
08:56PM 44.1100 -93.4567 357° North 198 228 8,200 -900 Descending Minneapolis Center
08:57PM 44.1636 -93.4592 358° North 192 221 7,300 -960 Descending Minneapolis Center
08:58PM 44.2311 -93.4625 358° North 202 232 6,300 -840 Descending Minneapolis Center
08:59PM 44.2919 -93.4628 360° North 218 251 5,600 -540 Descending Minneapolis Center
09:01PM 44.3533 -93.4578 North 220 253 5,200 -420 Descending Minneapolis Center
09:02PM 44.4122 -93.4575 360° North 214 246 4,700 -540 Descending Minneapolis Center
09:03PM 44.4869 -93.4600 359° North 223 257 4,100 -360 Descending Minneapolis Center
09:04PM 44.5467 -93.4631 358° North 216 249 4,000 -60 Descending Minneapolis Center
09:05PM 44.6131 -93.4572 North 201 231 4,000  Level Minneapolis Center
09:06PM 44.6689 -93.4381 14° North 204 235 4,000  Level Minneapolis Center
09:07PM 44.7236 -93.4222 12° North 202 232 4,000  Level Minneapolis Center
09:08PM 44.7797 -93.4067 11° North 203 234 4,000  Level Minneapolis Center
09:09PM 44.8314 -93.3692 27° Northeast 211 243 4,000  Level Minneapolis Center
09:10PM 44.8747 -93.3142 42° Northeast 207 238 4,000  Level Minneapolis Center
09:11PM 44.9164 -93.2572 44° Northeast 208 239 4,000 -240 Level Minneapolis Center
09:12PM 44.9539 -93.1947 50° Northeast 208 239 3,600 -780 Descending Minneapolis Center
09:13PM 44.9803 -93.1264 61° Northeast 164 189 2,400 -1,080 Descending Minneapolis Center
09:14PM 44.9611 -93.0864 124° Southeast 129 148 1,400 -660 Descending Minneapolis Center
09:15PM 44.9383 -93.0661 148° Southeast 115 132 1,100 -300 Descending Minneapolis Center
09:17PM 44.9333 -93.0500 47° Northeast  Level FlightAware Approximate